Nichioh Maru — JD3267 — position and weather

sailwx.info

Track history (hours):
 
Tides and Currents Weather Stations Pressure Air Temp Water Temp Dewpoint Dewpoint Depression Visibility Wind Speed Wind Dir Waves Ship Positions

Nichioh Maru

Last reported at 2015-Apr-20 02:33 UTC. Time now 2015-Apr-21 23:27 UTC.
Position N 34°38' E 134°59'.

Length 170 m; draft 6.5 m.

Type: Cargo ship. MMSI: 431003232.

Date/timePositionNaut miles runAvg speedWind from/ knotsBaromVisibWave heightAir tempDewpointWater temp
2015-Apr-20 02:33N 34°38' E 134°59'1413.6
2015-Apr-20 01:33N 34°38' E 135°16'3 3.3
2015-Apr-20 00:32N 34°41' E 135°13'0 0.0
2015-Apr-19 23:32N 34°41' E 135°13'2 1.6
2015-Apr-19 22:32N 34°40' E 135°15'1515.2
2015-Apr-19 21:33N 34°26' E 135°07'2019.6
2015-Apr-19 20:34N 34°08' E 135°00'172 6.3
2015-Apr-18 17:05N 34°32' E 138°27'815.3
2015-Apr-18 16:33N 34°32' E 138°37'5112.7
2015-Apr-18 12:33N 34°58' E 139°30'1413.8
2015-Apr-18 11:33N 35°06' E 139°43'1211.9
2015-Apr-18 10:33N 35°18' E 139°44'1212.2
2015-Apr-18 09:33N 35°30' E 139°48'1 1.4
2015-Apr-18 08:34N 35°30' E 139°46'0 0.0
2015-Apr-18 07:30N 35°30' E 139°46'0 0.0
2015-Apr-18 06:27N 35°30' E 139°46'0 0.0
2015-Apr-18 05:33N 35°30' E 139°46'0 0.0
2015-Apr-18 04:27N 35°30' E 139°46'4 4.5
2015-Apr-18 03:33N 35°27' E 139°44'9 8.7
2015-Apr-18 02:34N 35°19' E 139°39'0 0.2
2015-Apr-18 01:31N 35°19' E 139°39'0 0.0
2015-Apr-18 00:20N 35°19' E 139°39'0 0.0
2015-Apr-17 23:32N 35°19' E 139°39'0 0.0
2015-Apr-17 22:26N 35°19' E 139°39'7 8.1
2015-Apr-17 21:34N 35°15' E 139°47'1211.8
2015-Apr-17 20:33N 35°04' E 139°41'23514.6
2015-Apr-17 04:27N 34°21' E 135°00'1819.9
2015-Apr-17 03:33N 34°35' E 135°15'6 5.7
2015-Apr-17 02:28N 34°41' E 135°13'0 0.0
2015-Apr-17 01:22N 34°41' E 135°13'0 0.0
2015-Apr-17 00:28N 34°41' E 135°13'0 0.0
2015-Apr-16 23:28N 34°41' E 135°13'2 2.0
2015-Apr-16 22:33N 34°40' E 135°15'3 3.1
2015-Apr-16 21:30N 34°37' E 135°17'0 0.1
2015-Apr-16 20:12N 34°37' E 135°17'0 0.0
2015-Apr-16 19:25N 34°37' E 135°17'0 0.0
2015-Apr-16 18:30N 34°37' E 135°17'0 0.1
2015-Apr-16 17:30N 34°37' E 135°17'0 0.1
2015-Apr-16 16:30N 34°37' E 135°17'0 0.0
2015-Apr-16 15:24N 34°37' E 135°17'0 0.0
2015-Apr-16 14:31N 34°37' E 135°17'0 0.0
2015-Apr-16 13:18N 34°37' E 135°17'0 0.0
2015-Apr-16 12:24N 34°37' E 135°17'0 0.0
2015-Apr-16 11:30N 34°37' E 135°17'0 0.1
2015-Apr-16 10:30N 34°37' E 135°17'4 4.1
2015-Apr-16 09:34N 34°35' E 135°13'1716.4
2015-Apr-16 08:32N 34°35' E 134°53'  
2015-Apr-13 03:29N 34°37' E 134°57'1516.4
2015-Apr-13 02:33N 34°37' E 135°15'4 3.8
2015-Apr-13 01:29N 34°41' E 135°13'0 0.0
2015-Apr-13 00:29N 34°41' E 135°13'0 0.0
2015-Apr-12 23:29N 34°41' E 135°13'1 1.6
2015-Apr-12 22:34N 34°40' E 135°15'1313.1
2015-Apr-12 21:33N 34°28' E 135°09'1414.2
2015-Apr-12 20:33N 34°16' E 134°59'1818.0
2015-Apr-12 19:33N 33°58' E 135°01'179 7.1
2015-Apr-11 18:27N 34°32' E 138°34'5016.4
2015-Apr-11 15:23N 34°58' E 139°27'1619.0
2015-Apr-11 14:33N 35°07' E 139°43'1313.1
2015-Apr-11 13:33N 35°20' E 139°42'1110.8
2015-Apr-11 12:33N 35°30' E 139°46'0 0.0
2015-Apr-11 11:31N 35°30' E 139°46'0 0.0
2015-Apr-11 10:31N 35°30' E 139°46'0 0.0
2015-Apr-11 09:31N 35°30' E 139°46'0 0.0
2015-Apr-11 08:28N 35°30' E 139°46'0 0.0
2015-Apr-11 07:31N 35°30' E 139°46'2 1.6
2015-Apr-11 06:33N 35°30' E 139°44'1010.3
2015-Apr-11 05:33N 35°20' E 139°44'4 3.6
2015-Apr-11 04:29N 35°19' E 139°39'0 0.0
2015-Apr-11 03:29N 35°19' E 139°39'0 0.0
2015-Apr-11 02:29N 35°19' E 139°39'0 0.0
2015-Apr-11 01:23N 35°19' E 139°39'0 0.0
2015-Apr-11 00:32N 35°19' E 139°39'0 0.0
2015-Apr-10 23:29N 35°19' E 139°39'0 0.0
2015-Apr-10 22:29N 35°19' E 139°39'2 1.9
2015-Apr-10 21:31N 35°20' E 139°41'0 0.1
2015-Apr-10 20:31N 35°19' E 139°41'0 0.1
2015-Apr-10 19:33N 35°19' E 139°41'0 0.0
2015-Apr-10 18:31N 35°19' E 139°41'0 0.1
2015-Apr-10 17:34N 35°19' E 139°41'0 0.0
2015-Apr-10 16:31N 35°19' E 139°41'0 0.0
2015-Apr-10 15:30N 35°19' E 139°41'0 0.1
2015-Apr-10 14:30N 35°20' E 139°41'0 0.0
2015-Apr-10 13:30N 35°20' E 139°41'8 8.1
2015-Apr-10 12:33N 35°13' E 139°47'1716.6
2015-Apr-10 11:33N 34°60' E 139°36'5717.2
2015-Apr-10 08:15N 34°32' E 138°35'  
Track history (hours):
 
Tides and Currents Weather Stations Pressure Air Temp Water Temp Dewpoint Dewpoint Depression Visibility Wind Speed Wind Dir Waves Ship Positions

Nichioh Maru

Last reported at 2015-Apr-20 02:33 UTC. Time now 2015-Apr-21 23:27 UTC.
Position N 34°38' E 134°59'.

Length 170 m; draft 6.5 m.

Type: Cargo ship. MMSI: 431003232.

Date/timePositionNaut miles runAvg speedWind from/ knotsBaromVisibWave heightAir tempDewpointWater temp
2015-Apr-20 02:33N 34°38' E 134°59'1413.6
2015-Apr-20 01:33N 34°38' E 135°16'3 3.3
2015-Apr-20 00:32N 34°41' E 135°13'0 0.0
2015-Apr-19 23:32N 34°41' E 135°13'2 1.6
2015-Apr-19 22:32N 34°40' E 135°15'1515.2
2015-Apr-19 21:33N 34°26' E 135°07'2019.6
2015-Apr-19 20:34N 34°08' E 135°00'172 6.3
2015-Apr-18 17:05N 34°32' E 138°27'815.3
2015-Apr-18 16:33N 34°32' E 138°37'5112.7
2015-Apr-18 12:33N 34°58' E 139°30'1413.8
2015-Apr-18 11:33N 35°06' E 139°43'1211.9
2015-Apr-18 10:33N 35°18' E 139°44'1212.2
2015-Apr-18 09:33N 35°30' E 139°48'1 1.4
2015-Apr-18 08:34N 35°30' E 139°46'0 0.0
2015-Apr-18 07:30N 35°30' E 139°46'0 0.0
2015-Apr-18 06:27N 35°30' E 139°46'0 0.0
2015-Apr-18 05:33N 35°30' E 139°46'0 0.0
2015-Apr-18 04:27N 35°30' E 139°46'4 4.5
2015-Apr-18 03:33N 35°27' E 139°44'9 8.7
2015-Apr-18 02:34N 35°19' E 139°39'0 0.2
2015-Apr-18 01:31N 35°19' E 139°39'0 0.0
2015-Apr-18 00:20N 35°19' E 139°39'0 0.0
2015-Apr-17 23:32N 35°19' E 139°39'0 0.0
2015-Apr-17 22:26N 35°19' E 139°39'7 8.1
2015-Apr-17 21:34N 35°15' E 139°47'1211.8
2015-Apr-17 20:33N 35°04' E 139°41'23514.6
2015-Apr-17 04:27N 34°21' E 135°00'1819.9
2015-Apr-17 03:33N 34°35' E 135°15'6 5.7
2015-Apr-17 02:28N 34°41' E 135°13'0 0.0
2015-Apr-17 01:22N 34°41' E 135°13'0 0.0
2015-Apr-17 00:28N 34°41' E 135°13'0 0.0
2015-Apr-16 23:28N 34°41' E 135°13'2 2.0
2015-Apr-16 22:33N 34°40' E 135°15'3 3.1
2015-Apr-16 21:30N 34°37' E 135°17'0 0.1
2015-Apr-16 20:12N 34°37' E 135°17'0 0.0
2015-Apr-16 19:25N 34°37' E 135°17'0 0.0
2015-Apr-16 18:30N 34°37' E 135°17'0 0.1
2015-Apr-16 17:30N 34°37' E 135°17'0 0.1
2015-Apr-16 16:30N 34°37' E 135°17'0 0.0
2015-Apr-16 15:24N 34°37' E 135°17'0 0.0
2015-Apr-16 14:31N 34°37' E 135°17'0 0.0
2015-Apr-16 13:18N 34°37' E 135°17'0 0.0
2015-Apr-16 12:24N 34°37' E 135°17'0 0.0
2015-Apr-16 11:30N 34°37' E 135°17'0 0.1
2015-Apr-16 10:30N 34°37' E 135°17'4 4.1
2015-Apr-16 09:34N 34°35' E 135°13'1716.4
2015-Apr-16 08:32N 34°35' E 134°53'  
2015-Apr-13 03:29N 34°37' E 134°57'1516.4
2015-Apr-13 02:33N 34°37' E 135°15'4 3.8
2015-Apr-13 01:29N 34°41' E 135°13'0 0.0
2015-Apr-13 00:29N 34°41' E 135°13'0 0.0
2015-Apr-12 23:29N 34°41' E 135°13'1 1.6
2015-Apr-12 22:34N 34°40' E 135°15'1313.1
2015-Apr-12 21:33N 34°28' E 135°09'1414.2
2015-Apr-12 20:33N 34°16' E 134°59'1818.0
2015-Apr-12 19:33N 33°58' E 135°01'179 7.1
2015-Apr-11 18:27N 34°32' E 138°34'5016.4
2015-Apr-11 15:23N 34°58' E 139°27'1619.0
2015-Apr-11 14:33N 35°07' E 139°43'1313.1
2015-Apr-11 13:33N 35°20' E 139°42'1110.8
2015-Apr-11 12:33N 35°30' E 139°46'0 0.0
2015-Apr-11 11:31N 35°30' E 139°46'0 0.0
2015-Apr-11 10:31N 35°30' E 139°46'0 0.0
2015-Apr-11 09:31N 35°30' E 139°46'0 0.0
2015-Apr-11 08:28N 35°30' E 139°46'0 0.0
2015-Apr-11 07:31N 35°30' E 139°46'2 1.6
2015-Apr-11 06:33N 35°30' E 139°44'1010.3
2015-Apr-11 05:33N 35°20' E 139°44'4 3.6
2015-Apr-11 04:29N 35°19' E 139°39'0 0.0
2015-Apr-11 03:29N 35°19' E 139°39'0 0.0
2015-Apr-11 02:29N 35°19' E 139°39'0 0.0
2015-Apr-11 01:23N 35°19' E 139°39'0 0.0
2015-Apr-11 00:32N 35°19' E 139°39'0 0.0
2015-Apr-10 23:29N 35°19' E 139°39'0 0.0
2015-Apr-10 22:29N 35°19' E 139°39'2 1.9
2015-Apr-10 21:31N 35°20' E 139°41'0 0.1
2015-Apr-10 20:31N 35°19' E 139°41'0 0.1
2015-Apr-10 19:33N 35°19' E 139°41'0 0.0
2015-Apr-10 18:31N 35°19' E 139°41'0 0.1
2015-Apr-10 17:34N 35°19' E 139°41'0 0.0
2015-Apr-10 16:31N 35°19' E 139°41'0 0.0
2015-Apr-10 15:30N 35°19' E 139°41'0 0.1
2015-Apr-10 14:30N 35°20' E 139°41'0 0.0
2015-Apr-10 13:30N 35°20' E 139°41'8 8.1
2015-Apr-10 12:33N 35°13' E 139°47'1716.6
2015-Apr-10 11:33N 34°60' E 139°36'5717.2
2015-Apr-10 08:15N 34°32' E 138°35'  

Dump ship's entire track history